createdAt,value
2017-07-09T00:00:44.452Z,0
2017-07-09T00:01:45.419Z,0
2017-07-09T00:02:46.071Z,0
2017-07-09T00:03:46.762Z,0
2017-07-09T00:04:47.450Z,0
2017-07-09T00:05:48.139Z,0
2017-07-09T00:06:49.078Z,0
2017-07-09T00:07:49.766Z,0
2017-07-09T00:08:50.459Z,0
2017-07-09T00:09:51.151Z,0
2017-07-09T00:10:51.841Z,0
2017-07-09T00:11:52.534Z,0
2017-07-09T00:12:53.229Z,0
2017-07-09T00:13:53.923Z,0
2017-07-09T00:14:54.615Z,0
2017-07-09T00:15:55.305Z,0
2017-07-09T00:16:56.247Z,0
2017-07-09T00:17:56.940Z,0
2017-07-09T00:18:57.632Z,0
2017-07-09T00:19:58.331Z,0
2017-07-09T00:20:59.019Z,0
2017-07-09T00:21:59.962Z,0
2017-07-09T00:23:00.651Z,0
2017-07-09T00:24:01.344Z,0
2017-07-09T00:25:02.031Z,0
2017-07-09T00:26:02.726Z,0
2017-07-09T00:27:03.667Z,0
2017-07-09T00:28:04.356Z,0
2017-07-09T00:29:05.050Z,0
2017-07-09T00:30:05.740Z,0
2017-07-09T00:31:06.433Z,0
2017-07-09T00:32:07.375Z,0
2017-07-09T00:33:08.078Z,0
2017-07-09T00:34:08.768Z,0
2017-07-09T00:35:09.456Z,0
2017-07-09T00:36:10.157Z,0
2017-07-09T00:37:11.084Z,0
2017-07-09T00:38:11.771Z,0
2017-07-09T00:39:12.458Z,0
2017-07-09T00:40:13.148Z,0
2017-07-09T00:41:13.846Z,0
2017-07-09T00:42:14.786Z,0
2017-07-09T00:43:15.474Z,0
2017-07-09T00:44:16.165Z,0
2017-07-09T00:45:16.866Z,0
2017-07-09T00:46:17.560Z,0
2017-07-09T00:47:18.397Z,0
2017-07-09T00:48:19.087Z,0
2017-07-09T00:49:19.783Z,0
2017-07-09T00:50:20.473Z,0
2017-07-09T00:51:21.173Z,0
2017-07-09T00:52:22.108Z,0
2017-07-09T00:53:22.796Z,0
2017-07-09T00:54:23.487Z,0
2017-07-09T00:55:24.178Z,0
2017-07-09T00:56:24.869Z,0
2017-07-09T00:57:25.811Z,0
2017-07-09T00:58:26.504Z,0
2017-07-09T00:59:27.193Z,0
2017-07-09T01:00:27.889Z,0
2017-07-09T01:01:28.583Z,0
2017-07-09T01:02:29.522Z,0
2017-07-09T01:03:30.212Z,0
2017-07-09T01:04:30.904Z,0
2017-07-09T01:05:31.598Z,0
2017-07-09T01:06:32.287Z,0
2017-07-09T01:07:33.231Z,0
2017-07-09T01:08:33.922Z,0
2017-07-09T01:09:34.613Z,0
2017-07-09T01:10:35.307Z,0
2017-07-09T01:11:35.998Z,0
2017-07-09T01:12:36.940Z,0
2017-07-09T01:13:37.634Z,0
2017-07-09T01:14:38.318Z,0
2017-07-09T01:15:39.016Z,0
2017-07-09T01:16:39.704Z,0
2017-07-09T01:17:40.650Z,0
2017-07-09T01:18:41.340Z,0
2017-07-09T01:19:42.033Z,0
2017-07-09T01:20:42.725Z,0
2017-07-09T01:21:43.418Z,0
2017-07-09T01:22:44.107Z,0
2017-07-09T01:23:44.795Z,0
2017-07-09T01:24:45.481Z,0
2017-07-09T01:25:46.175Z,0
2017-07-09T01:26:46.866Z,0
2017-07-09T01:27:47.803Z,0
2017-07-09T01:28:48.494Z,0
2017-07-09T01:29:49.183Z,0
2017-07-09T01:30:49.877Z,0
2017-07-09T01:31:50.567Z,0
2017-07-09T01:32:51.507Z,0
2017-07-09T01:33:52.197Z,0
2017-07-09T01:34:52.889Z,0
2017-07-09T01:35:53.575Z,0
2017-07-09T01:36:54.269Z,0
2017-07-09T01:37:55.211Z,0
2017-07-09T01:38:55.899Z,0
2017-07-09T01:39:56.590Z,0
2017-07-09T01:40:57.283Z,0
2017-07-09T01:41:57.969Z,0
2017-07-09T01:42:58.914Z,0
2017-07-09T01:43:59.607Z,0
2017-07-09T01:45:00.297Z,0
2017-07-09T01:46:00.989Z,0
2017-07-09T01:47:01.682Z,0
2017-07-09T01:48:02.623Z,0
2017-07-09T01:49:03.315Z,0
2017-07-09T01:50:04.007Z,0
2017-07-09T01:51:04.703Z,0
2017-07-09T01:52:05.385Z,0
2017-07-09T01:53:06.323Z,0
2017-07-09T01:54:07.015Z,0
2017-07-09T01:55:07.714Z,0
2017-07-09T01:56:08.401Z,0
2017-07-09T01:57:09.091Z,0
2017-07-09T01:58:10.034Z,0
2017-07-09T01:59:10.724Z,0
2017-07-09T02:00:11.416Z,0
2017-07-09T02:01:12.110Z,0
2017-07-09T02:02:12.809Z,0
2017-07-09T02:03:13.750Z,0
2017-07-09T02:04:14.448Z,0
2017-07-09T02:05:15.139Z,0
2017-07-09T02:06:15.826Z,0
2017-07-09T02:07:16.516Z,0
2017-07-09T02:08:17.458Z,0
2017-07-09T02:09:18.149Z,0
2017-07-09T02:10:18.836Z,0
2017-07-09T02:11:19.520Z,0
2017-07-09T02:12:20.210Z,0
2017-07-09T02:13:21.149Z,0
2017-07-09T02:14:21.844Z,0
2017-07-09T02:15:22.533Z,0
2017-07-09T02:16:23.219Z,0
2017-07-09T02:17:23.910Z,0
2017-07-09T02:18:24.853Z,0
2017-07-09T02:19:25.544Z,0
2017-07-09T02:20:26.235Z,0
2017-07-09T02:21:26.930Z,0
2017-07-09T02:22:27.622Z,0
2017-07-09T02:23:28.563Z,0
2017-07-09T02:24:29.255Z,0
2017-07-09T02:25:29.945Z,0
2017-07-09T02:26:30.635Z,0
2017-07-09T02:27:31.326Z,0
2017-07-09T02:28:32.268Z,0
2017-07-09T02:29:32.961Z,0
2017-07-09T02:30:33.652Z,0
2017-07-09T02:31:34.345Z,0
2017-07-09T02:32:35.036Z,0
2017-07-09T02:33:35.727Z,0
2017-07-09T02:34:36.419Z,0
2017-07-09T02:35:37.107Z,0
2017-07-09T02:36:37.795Z,0
2017-07-09T02:37:38.492Z,0
2017-07-09T02:38:39.429Z,0
2017-07-09T02:39:40.119Z,0
2017-07-09T02:40:40.811Z,0
2017-07-09T02:41:41.504Z,0
2017-07-09T02:42:42.198Z,0
2017-07-09T02:43:43.148Z,0
2017-07-09T02:44:43.838Z,0
2017-07-09T02:45:44.535Z,0
2017-07-09T02:46:45.223Z,0
2017-07-09T02:47:45.914Z,0
2017-07-09T02:48:46.605Z,0
2017-07-09T02:49:47.293Z,0
2017-07-09T02:50:47.982Z,0
2017-07-09T02:51:48.672Z,0
2017-07-09T02:52:49.365Z,4
2017-07-09T02:53:50.305Z,4
2017-07-09T02:54:51.001Z,0
2017-07-09T02:55:51.689Z,0
2017-07-09T02:56:52.381Z,4
2017-07-09T02:57:53.066Z,4
2017-07-09T02:58:53.754Z,4
2017-07-09T02:59:54.446Z,4
2017-07-09T03:00:55.139Z,4
2017-07-09T03:01:55.826Z,8
2017-07-09T03:02:56.515Z,8
2017-07-09T03:03:57.456Z,12
2017-07-09T03:04:58.147Z,12
2017-07-09T03:05:58.839Z,12
2017-07-09T03:06:59.530Z,12
2017-07-09T03:08:00.222Z,16
2017-07-09T03:09:01.164Z,20
2017-07-09T03:10:01.869Z,20
2017-07-09T03:11:02.560Z,24
2017-07-09T03:12:03.249Z,28
2017-07-09T03:13:03.941Z,28
2017-07-09T03:14:04.885Z,36
2017-07-09T03:15:05.577Z,36
2017-07-09T03:16:06.270Z,44
2017-07-09T03:17:06.959Z,48
2017-07-09T03:18:07.651Z,52
2017-07-09T03:19:08.593Z,60
2017-07-09T03:20:09.283Z,68
2017-07-09T03:21:09.972Z,72
2017-07-09T03:22:10.659Z,80
2017-07-09T03:23:11.352Z,88
2017-07-09T03:24:12.295Z,92
2017-07-09T03:25:12.984Z,104
2017-07-09T03:26:13.676Z,112
2017-07-09T03:27:14.369Z,120
2017-07-09T03:28:15.061Z,128
2017-07-09T03:29:16.001Z,140
2017-07-09T03:30:16.692Z,148
2017-07-09T03:31:17.382Z,164
2017-07-09T03:32:18.070Z,180
2017-07-09T03:33:18.759Z,196
2017-07-09T03:34:19.701Z,212
2017-07-09T03:35:20.396Z,228
2017-07-09T03:36:21.098Z,240
2017-07-09T03:37:21.789Z,256
2017-07-09T03:38:22.481Z,276
2017-07-09T03:39:23.421Z,296
2017-07-09T03:40:24.114Z,316
2017-07-09T03:41:24.818Z,336
2017-07-09T03:42:25.510Z,356
2017-07-09T03:43:26.204Z,372
2017-07-09T03:44:27.144Z,392
2017-07-09T03:45:27.834Z,412
2017-07-09T03:46:28.526Z,436
2017-07-09T03:47:29.218Z,456
2017-07-09T03:48:29.909Z,480
2017-07-09T03:49:30.850Z,504
2017-07-09T03:50:31.543Z,536
2017-07-09T03:51:32.233Z,564
2017-07-09T03:52:32.929Z,592
2017-07-09T03:53:33.625Z,624
2017-07-09T03:54:34.564Z,656
2017-07-09T03:55:35.263Z,688
2017-07-09T03:56:35.953Z,716
2017-07-09T03:57:36.644Z,740
2017-07-09T03:58:37.344Z,760
2017-07-09T03:59:38.284Z,780
2017-07-09T04:00:38.977Z,804
2017-07-09T04:01:39.667Z,824
2017-07-09T04:02:40.358Z,844
2017-07-09T04:03:41.051Z,864
2017-07-09T04:04:41.994Z,880
2017-07-09T04:05:42.684Z,896
2017-07-09T04:06:43.377Z,916
2017-07-09T04:07:44.077Z,940
2017-07-09T04:08:44.769Z,976
2017-07-09T04:09:45.711Z,1016
2017-07-09T04:10:46.403Z,1060
2017-07-09T04:11:47.093Z,1104
2017-07-09T04:12:47.783Z,1148
2017-07-09T04:13:48.480Z,1196
2017-07-09T04:14:49.423Z,1244
2017-07-09T04:15:50.111Z,1296
2017-07-09T04:16:50.808Z,1348
2017-07-09T04:17:51.503Z,1400
2017-07-09T04:18:52.199Z,1448
2017-07-09T04:19:53.138Z,1492
2017-07-09T04:20:53.830Z,1528
2017-07-09T04:21:54.523Z,1568
2017-07-09T04:22:55.218Z,1612
2017-07-09T04:23:55.915Z,1656
2017-07-09T04:24:56.862Z,1692
2017-07-09T04:25:57.559Z,1696
2017-07-09T04:26:58.251Z,1760
2017-07-09T04:27:58.955Z,1812
2017-07-09T04:28:59.654Z,1852
2017-07-09T04:30:00.351Z,1908
2017-07-09T04:31:01.042Z,1988
2017-07-09T04:32:01.741Z,2008
2017-07-09T04:33:02.444Z,2088
2017-07-09T04:34:03.136Z,2196
2017-07-09T04:35:04.079Z,2344
2017-07-09T04:36:04.773Z,2488
2017-07-09T04:37:05.471Z,2592
2017-07-09T04:38:06.170Z,2656
2017-07-09T04:39:06.863Z,2452
2017-07-09T04:40:07.803Z,2508
2017-07-09T04:41:08.496Z,2536
2017-07-09T04:42:09.193Z,2572
2017-07-09T04:43:09.891Z,2636
2017-07-09T04:44:10.582Z,2644
2017-07-09T04:45:11.526Z,2640
2017-07-09T04:46:12.217Z,2580
2017-07-09T04:47:12.907Z,2504
2017-07-09T04:48:13.599Z,2448
2017-07-09T04:49:14.290Z,2272
2017-07-09T04:50:15.233Z,2140
2017-07-09T04:51:15.926Z,1956
2017-07-09T04:52:16.623Z,1796
2017-07-09T04:53:17.321Z,1592
2017-07-09T04:54:18.013Z,1320
2017-07-09T04:55:18.955Z,1140
2017-07-09T04:56:19.646Z,984
2017-07-09T04:57:20.345Z,948
2017-07-09T04:58:21.037Z,1000
2017-07-09T04:59:21.729Z,1084
2017-07-09T05:00:22.674Z,1136
2017-07-09T05:01:23.369Z,1152
2017-07-09T05:02:24.067Z,1084
2017-07-09T05:03:24.756Z,1040
2017-07-09T05:04:25.451Z,1056
2017-07-09T05:05:26.406Z,1112
2017-07-09T05:06:27.105Z,1232
2017-07-09T05:07:27.799Z,1360
2017-07-09T05:08:28.496Z,1492
2017-07-09T05:09:29.186Z,1556
2017-07-09T05:10:30.129Z,1532
2017-07-09T05:11:30.824Z,1560
2017-07-09T05:12:31.518Z,1652
2017-07-09T05:13:32.210Z,1696
2017-07-09T05:14:32.908Z,1676
2017-07-09T05:15:33.851Z,1536
2017-07-09T05:16:34.546Z,1356
2017-07-09T05:17:35.243Z,1132
2017-07-09T05:18:35.936Z,960
2017-07-09T05:19:36.626Z,840
2017-07-09T05:20:37.567Z,728
2017-07-09T05:21:38.261Z,624
2017-07-09T05:22:38.950Z,524
2017-07-09T05:23:39.643Z,440
2017-07-09T05:24:40.337Z,360
2017-07-09T05:25:41.030Z,300
2017-07-09T05:26:41.720Z,276
2017-07-09T05:27:42.413Z,268
2017-07-09T05:28:43.146Z,252
2017-07-09T05:29:43.792Z,228
2017-07-09T05:30:44.736Z,208
2017-07-09T05:31:45.427Z,192
2017-07-09T05:32:46.119Z,176
2017-07-09T05:33:46.813Z,164
2017-07-09T05:34:47.507Z,160
2017-07-09T05:35:48.456Z,160
2017-07-09T05:36:49.148Z,160
2017-07-09T05:37:49.837Z,168
2017-07-09T05:38:50.530Z,168
2017-07-09T05:39:51.220Z,184
2017-07-09T05:40:52.164Z,188
2017-07-09T05:41:52.855Z,188
2017-07-09T05:42:53.546Z,188
2017-07-09T05:43:54.239Z,200
2017-07-09T05:44:54.930Z,228
2017-07-09T05:45:55.875Z,268
2017-07-09T05:46:56.566Z,276
2017-07-09T05:47:57.257Z,272
2017-07-09T05:48:57.950Z,256
2017-07-09T05:49:58.644Z,256
2017-07-09T05:50:59.595Z,268
2017-07-09T05:52:00.288Z,304
2017-07-09T05:53:00.988Z,300
2017-07-09T05:54:01.688Z,268
2017-07-09T05:55:02.379Z,244
2017-07-09T05:56:03.331Z,228
2017-07-09T05:57:04.022Z,236
2017-07-09T05:58:04.725Z,244
2017-07-09T05:59:05.420Z,260
2017-07-09T06:00:06.110Z,312
2017-07-09T06:01:06.803Z,392
2017-07-09T06:02:07.498Z,468
2017-07-09T06:03:08.189Z,576
2017-07-09T06:04:08.883Z,716
2017-07-09T06:05:09.578Z,892
2017-07-09T06:06:10.277Z,1080
2017-07-09T06:07:11.230Z,1248
2017-07-09T06:08:11.926Z,1392
2017-07-09T06:09:12.619Z,1512
2017-07-09T06:10:13.313Z,1504
2017-07-09T06:11:14.010Z,1384
2017-07-09T06:12:14.951Z,1288
2017-07-09T06:13:15.658Z,1380
2017-07-09T06:14:16.347Z,1560
2017-07-09T06:15:17.037Z,1632
2017-07-09T06:16:17.733Z,1648
2017-07-09T06:17:18.684Z,1656
2017-07-09T06:18:19.380Z,1748
2017-07-09T06:19:20.081Z,1920
2017-07-09T06:20:20.774Z,2116
2017-07-09T06:21:21.468Z,2088
2017-07-09T06:22:22.420Z,2172
2017-07-09T06:23:23.114Z,2476
2017-07-09T06:24:23.806Z,2832
2017-07-09T06:25:24.507Z,2984
2017-07-09T06:26:25.200Z,3048
2017-07-09T06:27:26.143Z,3020
2017-07-09T06:28:26.841Z,3028
2017-07-09T06:29:27.543Z,3064
2017-07-09T06:30:28.239Z,3144
2017-07-09T06:31:28.941Z,3168
2017-07-09T06:32:29.892Z,3256
2017-07-09T06:33:30.599Z,3528
2017-07-09T06:34:31.305Z,3528
2017-07-09T06:35:31.999Z,3780
2017-07-09T06:36:32.691Z,3924
2017-07-09T06:37:33.636Z,3820
2017-07-09T06:38:34.333Z,3872
2017-07-09T06:39:35.029Z,3964
2017-07-09T06:40:35.725Z,4072
2017-07-09T06:41:36.423Z,4184
2017-07-09T06:42:37.371Z,4304
2017-07-09T06:43:38.065Z,4508
2017-07-09T06:44:38.760Z,4968
2017-07-09T06:45:39.460Z,5220
2017-07-09T06:46:40.152Z,5676
2017-07-09T06:47:41.105Z,5668
2017-07-09T06:48:41.805Z,6060
2017-07-09T06:49:42.519Z,6156
2017-07-09T06:50:43.217Z,6060
2017-07-09T06:51:43.926Z,5748
2017-07-09T06:52:44.868Z,5516
2017-07-09T06:53:45.572Z,5304
2017-07-09T06:54:46.272Z,5088
2017-07-09T06:55:46.969Z,4840
2017-07-09T06:56:47.669Z,4476
2017-07-09T06:57:48.609Z,4176
2017-07-09T06:58:49.312Z,4132
2017-07-09T06:59:50.007Z,4076
2017-07-09T07:00:50.705Z,4188
2017-07-09T07:01:51.421Z,4196
2017-07-09T07:02:52.372Z,4216
2017-07-09T07:03:53.069Z,4296
2017-07-09T07:04:53.764Z,4364
2017-07-09T07:05:54.457Z,4440
2017-07-09T07:06:55.157Z,4520
2017-07-09T07:07:56.105Z,4584
2017-07-09T07:08:56.809Z,4616
2017-07-09T07:09:57.509Z,4636
2017-07-09T07:10:58.210Z,4620
2017-07-09T07:11:58.904Z,4588
2017-07-09T07:12:59.844Z,4460
2017-07-09T07:14:00.546Z,4344
2017-07-09T07:15:01.251Z,4332
2017-07-09T07:16:01.945Z,4380
2017-07-09T07:17:02.866Z,4544
2017-07-09T07:18:03.815Z,4600
2017-07-09T07:19:04.523Z,4480
2017-07-09T07:20:05.230Z,4132
2017-07-09T07:21:05.925Z,4012
2017-07-09T07:22:06.617Z,4052
2017-07-09T07:23:07.563Z,4204
2017-07-09T07:24:08.266Z,4392
2017-07-09T07:25:08.962Z,4480
2017-07-09T07:26:09.659Z,4648
2017-07-09T07:27:10.359Z,4804
2017-07-09T07:28:11.312Z,5024
2017-07-09T07:29:12.011Z,5152
2017-07-09T07:30:12.706Z,5388
2017-07-09T07:31:13.398Z,5604
2017-07-09T07:32:14.089Z,5656
2017-07-09T07:33:15.035Z,5640
2017-07-09T07:34:15.736Z,5556
2017-07-09T07:35:16.431Z,5736
2017-07-09T07:36:17.121Z,5840
2017-07-09T07:37:17.819Z,5844
2017-07-09T07:38:18.527Z,6040
2017-07-09T07:39:19.223Z,5636
2017-07-09T07:40:19.916Z,5316
2017-07-09T07:41:20.609Z,4936
2017-07-09T07:42:21.308Z,4592
2017-07-09T07:43:22.263Z,4232
2017-07-09T07:44:22.956Z,3944
2017-07-09T07:45:23.649Z,3788
2017-07-09T07:46:24.350Z,3636
2017-07-09T07:47:25.047Z,3532
2017-07-09T07:48:25.991Z,3476
2017-07-09T07:49:26.687Z,3364
2017-07-09T07:50:27.389Z,3212
2017-07-09T07:51:28.087Z,3084
2017-07-09T07:52:28.788Z,2948
2017-07-09T07:53:29.734Z,2892
2017-07-09T07:54:30.431Z,2820
2017-07-09T07:55:31.127Z,2780
2017-07-09T07:56:31.819Z,2824
2017-07-09T07:57:32.524Z,2936
2017-07-09T07:58:33.469Z,3000
2017-07-09T07:59:34.164Z,3024
2017-07-09T08:00:34.868Z,3188
2017-07-09T08:01:35.565Z,3196
2017-07-09T08:02:36.257Z,3180
2017-07-09T08:03:37.205Z,3124
2017-07-09T08:04:37.898Z,3112
2017-07-09T08:05:38.594Z,3072
2017-07-09T08:06:39.288Z,3028
2017-07-09T08:07:39.995Z,3016
2017-07-09T08:08:40.941Z,2920
2017-07-09T08:09:41.639Z,2832
2017-07-09T08:10:42.336Z,2728
2017-07-09T08:11:43.033Z,2644
2017-07-09T08:12:43.737Z,2568
2017-07-09T08:13:44.685Z,2532
2017-07-09T08:14:45.333Z,2548
2017-07-09T08:15:46.080Z,2600
2017-07-09T08:16:46.776Z,2632
2017-07-09T08:17:47.472Z,2552
2017-07-09T08:18:48.420Z,2448
2017-07-09T08:19:49.119Z,2352
2017-07-09T08:20:49.813Z,2300
2017-07-09T08:21:50.510Z,2220
2017-07-09T08:22:51.203Z,2120
2017-07-09T08:23:52.146Z,2068
2017-07-09T08:24:52.843Z,2024
2017-07-09T08:25:53.537Z,1984
2017-07-09T08:26:54.234Z,1840
2017-07-09T08:27:54.926Z,1648
2017-07-09T08:28:55.870Z,1576
2017-07-09T08:29:56.566Z,1560
2017-07-09T08:30:57.266Z,1576
2017-07-09T08:31:57.965Z,1680
2017-07-09T08:32:58.660Z,1728
2017-07-09T08:33:59.612Z,1876
2017-07-09T08:35:00.304Z,2080
2017-07-09T08:36:00.999Z,2340
2017-07-09T08:37:01.693Z,2216
2017-07-09T08:38:02.384Z,2472
2017-07-09T08:39:03.332Z,2668
2017-07-09T08:40:04.038Z,2856
2017-07-09T08:41:04.737Z,3060
2017-07-09T08:42:05.435Z,3268
2017-07-09T08:43:06.132Z,3440
2017-07-09T08:44:07.074Z,3540
2017-07-09T08:45:07.765Z,3708
2017-07-09T08:46:08.462Z,3732
2017-07-09T08:47:09.168Z,3740
2017-07-09T08:48:09.861Z,3764
2017-07-09T08:49:10.803Z,3036
2017-07-09T08:50:11.503Z,3540
2017-07-09T08:51:12.204Z,3240
2017-07-09T08:52:12.907Z,3040
2017-07-09T08:53:13.602Z,3400
2017-07-09T08:54:14.544Z,3436
2017-07-09T08:55:15.242Z,3560
2017-07-09T08:56:15.940Z,3660
2017-07-09T08:57:16.630Z,3684
2017-07-09T08:58:17.336Z,3724
2017-07-09T08:59:18.034Z,3672
2017-07-09T09:00:18.734Z,3448
2017-07-09T09:01:19.439Z,3340
2017-07-09T09:02:20.139Z,3164
2017-07-09T09:03:20.833Z,2920
2017-07-09T09:04:21.532Z,2664
2017-07-09T09:05:22.225Z,2488
2017-07-09T09:06:22.921Z,2328
2017-07-09T09:07:23.624Z,2352
2017-07-09T09:08:24.321Z,2404
2017-07-09T09:09:25.022Z,2532
2017-07-09T09:10:25.971Z,3244
2017-07-09T09:11:26.664Z,3552
2017-07-09T09:12:27.359Z,3812
2017-07-09T09:13:28.062Z,4120
2017-07-09T09:14:28.767Z,4328
2017-07-09T09:15:29.712Z,4396
2017-07-09T09:16:30.409Z,4428
2017-07-09T09:17:31.109Z,4396
2017-07-09T09:18:31.805Z,4376
2017-07-09T09:19:32.510Z,4396
2017-07-09T09:20:33.209Z,4432
2017-07-09T09:21:33.905Z,4480
2017-07-09T09:22:34.613Z,4400
2017-07-09T09:23:35.316Z,4284
2017-07-09T09:24:36.006Z,4040
2017-07-09T09:25:36.960Z,3824
2017-07-09T09:26:37.661Z,3560
2017-07-09T09:27:38.354Z,3272
2017-07-09T09:28:39.049Z,2992
2017-07-09T09:29:39.746Z,2788
2017-07-09T09:30:40.689Z,2576
2017-07-09T09:31:41.393Z,2356
2017-07-09T09:32:42.091Z,2204
2017-07-09T09:33:42.786Z,2108
2017-07-09T09:34:43.495Z,2040
2017-07-09T09:35:44.438Z,2016
2017-07-09T09:36:45.140Z,2040
2017-07-09T09:37:45.838Z,2100
2017-07-09T09:38:46.515Z,2136
2017-07-09T09:39:47.236Z,2224
2017-07-09T09:40:48.197Z,2340
2017-07-09T09:41:48.890Z,2544
2017-07-09T09:42:49.591Z,2780
2017-07-09T09:43:50.288Z,3040
2017-07-09T09:44:50.983Z,3316
2017-07-09T09:45:51.931Z,3604
2017-07-09T09:46:52.634Z,3916
2017-07-09T09:47:53.341Z,4412
2017-07-09T09:48:54.036Z,4976
2017-07-09T09:49:54.733Z,5664
2017-07-09T09:50:55.680Z,6192
2017-07-09T09:51:56.381Z,6680
2017-07-09T09:52:57.081Z,6960
2017-07-09T09:53:57.779Z,7024
2017-07-09T09:54:58.475Z,6816
2017-07-09T09:55:59.429Z,6532
2017-07-09T09:57:00.129Z,6072
2017-07-09T09:58:00.838Z,5600
2017-07-09T09:59:01.538Z,5012
2017-07-09T10:00:02.242Z,4800
2017-07-09T10:01:03.700Z,4600
2017-07-09T10:02:04.406Z,4328
2017-07-09T10:03:05.123Z,3988
2017-07-09T10:04:05.819Z,3932
2017-07-09T10:05:06.535Z,3960
2017-07-09T10:06:07.490Z,4912
2017-07-09T10:07:08.195Z,4928
2017-07-09T10:08:08.898Z,4912
2017-07-09T10:09:09.603Z,4828
2017-07-09T10:10:10.310Z,4844
2017-07-09T10:11:11.264Z,4988
2017-07-09T10:12:11.972Z,5088
2017-07-09T10:13:12.670Z,5224
2017-07-09T10:14:13.388Z,5332
2017-07-09T10:15:14.081Z,5428
2017-07-09T10:16:14.758Z,5528
2017-07-09T10:17:15.493Z,5688
2017-07-09T10:18:16.189Z,5628
2017-07-09T10:19:16.893Z,6108
2017-07-09T10:20:17.600Z,6256
2017-07-09T10:21:18.554Z,6312
2017-07-09T10:22:19.257Z,6348
2017-07-09T10:23:19.960Z,6428
2017-07-09T10:24:20.666Z,6612
2017-07-09T10:25:21.378Z,6768
2017-07-09T10:26:22.328Z,6976
2017-07-09T10:27:23.044Z,7196
2017-07-09T10:28:23.756Z,7036
2017-07-09T10:29:24.453Z,7712
2017-07-09T10:30:25.161Z,7848
2017-07-09T10:31:26.117Z,8064
2017-07-09T10:32:26.817Z,8184
2017-07-09T10:33:27.517Z,8148
2017-07-09T10:34:28.230Z,8132
2017-07-09T10:35:28.951Z,8192
2017-07-09T10:36:29.901Z,8344
2017-07-09T10:37:30.606Z,8464
2017-07-09T10:38:31.308Z,8512
2017-07-09T10:39:32.008Z,8940
2017-07-09T10:40:32.731Z,9068
2017-07-09T10:41:33.682Z,9080
2017-07-09T10:42:34.382Z,9000
2017-07-09T10:43:35.081Z,9012
2017-07-09T10:44:35.792Z,9216
2017-07-09T10:45:36.491Z,9040
2017-07-09T10:46:37.441Z,9576
2017-07-09T10:47:38.133Z,9800
2017-07-09T10:48:38.833Z,9844
2017-07-09T10:49:39.534Z,9440
2017-07-09T10:50:40.236Z,9680
2017-07-09T10:51:41.182Z,9512
2017-07-09T10:52:41.877Z,9676
2017-07-09T10:53:42.580Z,9388
2017-07-09T10:54:43.285Z,8916
2017-07-09T10:55:43.984Z,8864
2017-07-09T10:56:44.931Z,9108
2017-07-09T10:57:45.627Z,8900
2017-07-09T10:58:46.329Z,9232
2017-07-09T10:59:47.024Z,9044
2017-07-09T11:00:47.725Z,9176
2017-07-09T11:01:48.678Z,9776
2017-07-09T11:02:49.378Z,9740
2017-07-09T11:03:50.080Z,10644
2017-07-09T11:04:50.780Z,10688
2017-07-09T11:05:51.484Z,10280
2017-07-09T11:06:52.436Z,10304
2017-07-09T11:07:53.149Z,10356
2017-07-09T11:08:53.848Z,9700
2017-07-09T11:09:54.543Z,9164
2017-07-09T11:10:55.267Z,8448
2017-07-09T11:11:56.213Z,8284
2017-07-09T11:12:56.911Z,8312
2017-07-09T11:13:57.607Z,8448
2017-07-09T11:14:58.305Z,8572
2017-07-09T11:15:59.002Z,9000
2017-07-09T11:16:59.952Z,9576
2017-07-09T11:18:00.651Z,9908
2017-07-09T11:19:01.362Z,9696
2017-07-09T11:20:02.062Z,9620
2017-07-09T11:21:02.775Z,9472
2017-07-09T11:22:03.722Z,9272
2017-07-09T11:23:04.418Z,9332
2017-07-09T11:24:05.121Z,10220
2017-07-09T11:25:05.824Z,9584
2017-07-09T11:26:06.522Z,9864
2017-07-09T11:27:07.472Z,9800
2017-07-09T11:28:08.170Z,10076
2017-07-09T11:29:08.872Z,10088
2017-07-09T11:30:09.579Z,11000
2017-07-09T11:31:10.280Z,10588
2017-07-09T11:32:11.240Z,10968
2017-07-09T11:33:11.938Z,11156
2017-07-09T11:34:12.638Z,10720
2017-07-09T11:35:13.338Z,11380
2017-07-09T11:36:14.041Z,11364
2017-07-09T11:37:14.995Z,11180
2017-07-09T11:38:15.696Z,11088
2017-07-09T11:39:16.396Z,12492
2017-07-09T11:40:17.093Z,10980
2017-07-09T11:41:17.796Z,11292
2017-07-09T11:42:18.751Z,11556
2017-07-09T11:43:19.459Z,10776
2017-07-09T11:44:20.165Z,11028
2017-07-09T11:45:20.871Z,10192
2017-07-09T11:46:21.573Z,9656
2017-07-09T11:47:22.270Z,10608
2017-07-09T11:48:22.972Z,9396
2017-07-09T11:49:23.673Z,9308
2017-07-09T11:50:24.376Z,9988
2017-07-09T11:51:25.088Z,11712
2017-07-09T11:52:26.046Z,11296
2017-07-09T11:53:26.744Z,8936
2017-07-09T11:54:27.440Z,9560
2017-07-09T11:55:28.139Z,9868
2017-07-09T11:56:28.846Z,9992
2017-07-09T11:57:29.800Z,10484
2017-07-09T11:58:30.502Z,10544
2017-07-09T11:59:31.205Z,13128
2017-07-09T12:00:31.920Z,11960
2017-07-09T12:01:32.624Z,10624
2017-07-09T12:02:33.573Z,10988
2017-07-09T12:03:34.281Z,11768
2017-07-09T12:04:34.983Z,12440
2017-07-09T12:05:35.683Z,12368
2017-07-09T12:06:36.385Z,12884
2017-07-09T12:07:37.338Z,13252
2017-07-09T12:08:38.039Z,13284
2017-07-09T12:09:38.740Z,13232
2017-07-09T12:10:39.461Z,13448
2017-07-09T12:11:40.177Z,14256
2017-07-09T12:12:41.128Z,14368
2017-07-09T12:13:41.829Z,15088
2017-07-09T12:14:42.531Z,13068
2017-07-09T12:15:43.246Z,12628
2017-07-09T12:16:43.945Z,11696
2017-07-09T12:17:44.665Z,11160
2017-07-09T12:18:45.618Z,10456
2017-07-09T12:19:46.319Z,9756
2017-07-09T12:20:47.021Z,7424
2017-07-09T12:21:47.723Z,8544
2017-07-09T12:22:48.423Z,7384
2017-07-09T12:23:49.370Z,8644
2017-07-09T12:24:50.070Z,8904
2017-07-09T12:25:50.777Z,8244
2017-07-09T12:26:51.489Z,8476
2017-07-09T12:27:52.189Z,8852
2017-07-09T12:28:53.138Z,9204
2017-07-09T12:29:53.836Z,9740
2017-07-09T12:30:54.544Z,10360
2017-07-09T12:31:55.249Z,11004
2017-07-09T12:32:55.956Z,11832
2017-07-09T12:33:56.905Z,12576
2017-07-09T12:34:57.609Z,13664
2017-07-09T12:35:58.311Z,14640
2017-07-09T12:36:59.016Z,15004
2017-07-09T12:37:59.718Z,15092
2017-07-09T12:39:00.672Z,15144
2017-07-09T12:40:01.438Z,13316
2017-07-09T12:41:02.080Z,12640
2017-07-09T12:42:02.787Z,13728
2017-07-09T12:43:03.484Z,12064
2017-07-09T12:44:04.435Z,13224
2017-07-09T12:45:05.138Z,10760
2017-07-09T12:46:05.848Z,9476
2017-07-09T12:47:06.542Z,9228
2017-07-09T12:48:07.251Z,10912
2017-07-09T12:49:08.213Z,10808
2017-07-09T12:50:08.915Z,10600
2017-07-09T12:51:09.617Z,10840
2017-07-09T12:52:10.333Z,10736
2017-07-09T12:53:11.033Z,10448
2017-07-09T12:54:11.982Z,11800
2017-07-09T12:55:12.679Z,13320
2017-07-09T12:56:13.380Z,14628
2017-07-09T12:57:14.084Z,16448
2017-07-09T12:58:14.797Z,15572
2017-07-09T12:59:15.754Z,14896
2017-07-09T13:00:16.456Z,16352
2017-07-09T13:01:17.168Z,14580
2017-07-09T13:02:17.868Z,14288
2017-07-09T13:03:18.552Z,14416
2017-07-09T13:04:19.518Z,14460
2017-07-09T13:05:20.228Z,15168
2017-07-09T13:06:20.928Z,14676
2017-07-09T13:07:21.637Z,14196
2017-07-09T13:08:22.350Z,14124
2017-07-09T13:09:23.305Z,14372
2017-07-09T13:10:24.005Z,14076
2017-07-09T13:11:24.703Z,13564
2017-07-09T13:12:25.409Z,13572
2017-07-09T13:13:26.109Z,14320
2017-07-09T13:14:27.059Z,17312
2017-07-09T13:15:27.762Z,18144
2017-07-09T13:16:28.472Z,18368
2017-07-09T13:17:29.176Z,17376
2017-07-09T13:18:29.884Z,16320
2017-07-09T13:19:30.845Z,15296
2017-07-09T13:20:31.541Z,15144
2017-07-09T13:21:32.244Z,15584
2017-07-09T13:22:32.943Z,13960
2017-07-09T13:23:33.647Z,13504
2017-07-09T13:24:34.601Z,13036
2017-07-09T13:25:35.306Z,12740
2017-07-09T13:26:36.007Z,12684
2017-07-09T13:27:36.710Z,12240
2017-07-09T13:28:37.426Z,11972
2017-07-09T13:29:38.380Z,12240
2017-07-09T13:30:39.080Z,12540
2017-07-09T13:31:39.786Z,13320
2017-07-09T13:32:40.489Z,15584
2017-07-09T13:33:41.196Z,14112
2017-07-09T13:34:42.149Z,15968
2017-07-09T13:35:42.861Z,16704
2017-07-09T13:36:43.562Z,16288
2017-07-09T13:37:44.275Z,15396
2017-07-09T13:38:44.977Z,15444
2017-07-09T13:39:45.938Z,15284
2017-07-09T13:40:46.640Z,14692
2017-07-09T13:41:47.342Z,14408
2017-07-09T13:42:48.044Z,13952
2017-07-09T13:43:48.747Z,13776
2017-07-09T13:44:49.702Z,13528
2017-07-09T13:45:50.411Z,13692
2017-07-09T13:46:51.110Z,13528